createdAt,value
2023-04-10T00:01:10.726Z,9.03
2023-04-10T00:03:39.217Z,9.00
2023-04-10T00:06:07.627Z,8.97
2023-04-10T00:08:34.970Z,8.97
2023-04-10T00:11:02.234Z,8.95
2023-04-10T00:13:30.482Z,8.98
2023-04-10T00:15:58.451Z,8.95
2023-04-10T00:18:25.802Z,8.95
2023-04-10T00:20:53.844Z,8.93
2023-04-10T00:23:22.554Z,8.92
2023-04-10T00:25:50.275Z,8.91
2023-04-10T00:28:17.686Z,8.86
2023-04-10T00:30:45.882Z,8.87
2023-04-10T00:33:13.649Z,8.84
2023-04-10T00:35:41.017Z,8.81
2023-04-10T00:38:08.423Z,8.79
2023-04-10T00:40:35.890Z,8.81
2023-04-10T00:43:03.429Z,8.78
2023-04-10T00:45:31.209Z,8.73
2023-04-10T00:47:58.655Z,8.73
2023-04-10T00:50:27.229Z,8.72
2023-04-10T00:52:54.541Z,8.72
2023-04-10T00:55:23.881Z,8.71
2023-04-10T00:57:52.633Z,8.71
2023-04-10T01:00:20.988Z,8.68
2023-04-10T01:02:48.905Z,8.68
2023-04-10T01:05:17.923Z,8.65
2023-04-10T01:08:43.219Z,8.66
2023-04-10T01:11:24.915Z,8.63
2023-04-10T01:14:19.812Z,8.61
2023-04-10T01:17:07.389Z,8.60
2023-04-10T01:20:04.720Z,8.59
2023-04-10T01:23:45.815Z,8.56
2023-04-10T01:26:17.500Z,8.51
2023-04-10T01:29:10.705Z,8.54
2023-04-10T01:32:02.805Z,8.50
2023-04-10T01:34:54.457Z,8.48
2023-04-10T01:37:30.327Z,8.44
2023-04-10T01:40:10.467Z,8.43
2023-04-10T01:42:50.979Z,8.39
2023-04-10T01:45:27.785Z,8.40
2023-04-10T01:47:56.589Z,8.35
2023-04-10T01:50:27.959Z,8.37
2023-04-10T01:52:57.440Z,8.33
2023-04-10T01:55:27.925Z,8.30
2023-04-10T01:58:04.790Z,8.28
2023-04-10T02:00:41.715Z,8.26
2023-04-10T02:03:11.348Z,8.21
2023-04-10T02:06:16.317Z,8.19
2023-04-10T02:09:14.094Z,8.17
2023-04-10T02:12:11.445Z,8.14
2023-04-10T02:14:46.757Z,8.10
2023-04-10T02:17:28.587Z,8.08
2023-04-10T02:20:00.838Z,8.06
2023-04-10T02:22:29.113Z,8.04
2023-04-10T02:24:58.973Z,7.99
2023-04-10T02:27:36.282Z,8.01
2023-04-10T02:30:05.905Z,7.98
2023-04-10T02:32:35.793Z,7.96
2023-04-10T02:35:04.139Z,7.94
2023-04-10T02:37:32.862Z,7.94
2023-04-10T02:40:01.990Z,7.95
2023-04-10T02:42:37.091Z,7.89
2023-04-10T02:45:06.426Z,7.94
2023-04-10T02:47:38.861Z,7.91
2023-04-10T02:50:07.252Z,7.92
2023-04-10T02:52:37.633Z,7.93
2023-04-10T02:55:06.381Z,7.88
2023-04-10T02:57:37.022Z,7.93
2023-04-10T03:00:06.928Z,7.93
2023-04-10T03:02:55.494Z,7.88
2023-04-10T03:05:27.052Z,7.88
2023-04-10T03:07:54.416Z,7.89
2023-04-10T03:10:21.678Z,7.90
2023-04-10T03:12:50.456Z,7.89
2023-04-10T03:15:21.157Z,7.87
2023-04-10T03:17:50.010Z,7.82
2023-04-10T03:20:18.673Z,7.85
2023-04-10T03:22:45.916Z,7.84
2023-04-10T03:25:17.363Z,7.85
2023-04-10T03:27:47.181Z,7.81
2023-04-10T03:30:14.526Z,7.83
2023-04-10T03:32:43.436Z,7.83
2023-04-10T03:35:11.030Z,7.81
2023-04-10T03:37:39.367Z,7.78
2023-04-10T03:40:09.671Z,7.70
2023-04-10T03:42:37.101Z,7.74
2023-04-10T03:45:07.009Z,7.71
2023-04-10T03:47:35.249Z,7.68
2023-04-10T03:50:06.055Z,7.67
2023-04-10T03:52:41.322Z,7.64
2023-04-10T03:55:14.441Z,7.64
2023-04-10T03:57:42.436Z,7.55
2023-04-10T04:00:13.129Z,7.60
2023-04-10T04:02:54.125Z,7.58
2023-04-10T04:05:42.348Z,7.56
2023-04-10T04:08:28.398Z,7.53
2023-04-10T04:11:11.862Z,7.50
2023-04-10T04:13:59.275Z,7.46
2023-04-10T04:16:48.518Z,7.43
2023-04-10T04:19:39.028Z,7.40
2023-04-10T04:22:24.607Z,7.36
2023-04-10T04:25:11.792Z,7.33
2023-04-10T04:28:00.124Z,7.32
2023-04-10T04:30:46.396Z,7.24
2023-04-10T04:33:19.202Z,7.29
2023-04-10T04:36:01.010Z,7.25
2023-04-10T04:38:55.767Z,7.23
2023-04-10T04:41:41.860Z,7.25
2023-04-10T04:44:28.153Z,7.25
2023-04-10T04:47:09.608Z,7.25
2023-04-10T04:50:05.432Z,7.23
2023-04-10T04:52:52.535Z,7.25
2023-04-10T04:55:30.576Z,7.25
2023-04-10T04:58:25.258Z,7.26
2023-04-10T05:01:12.836Z,7.26
2023-04-10T05:04:00.193Z,7.26
2023-04-10T05:06:37.250Z,7.25
2023-04-10T05:09:17.800Z,7.26
2023-04-10T05:12:11.439Z,7.29
2023-04-10T05:15:01.677Z,7.29
2023-04-10T05:17:38.874Z,7.30
2023-04-10T05:20:27.304Z,7.31
2023-04-10T05:23:24.468Z,7.31
2023-04-10T05:26:21.181Z,7.40
2023-04-10T05:28:53.911Z,7.47
2023-04-10T05:31:53.426Z,7.51
2023-04-10T05:34:59.503Z,7.54
2023-04-10T05:37:48.517Z,7.56
2023-04-10T05:40:34.467Z,7.60
2023-04-10T05:43:22.186Z,7.63
2023-04-10T05:46:09.113Z,7.68
2023-04-10T05:49:02.382Z,7.73
2023-04-10T05:51:53.540Z,7.78
2023-04-10T05:54:43.715Z,7.84
2023-04-10T05:57:11.063Z,7.93
2023-04-10T05:59:57.134Z,7.98
2023-04-10T06:02:25.858Z,8.03
2023-04-10T06:04:53.919Z,8.06
2023-04-10T06:07:22.521Z,8.12
2023-04-10T06:09:51.464Z,8.18
2023-04-10T06:12:19.121Z,8.24
2023-04-10T06:14:48.527Z,8.31
2023-04-10T06:17:25.869Z,8.36
2023-04-10T06:19:53.947Z,8.44
2023-04-10T06:22:21.387Z,8.48
2023-04-10T06:24:49.230Z,8.54
2023-04-10T06:27:18.628Z,8.61
2023-04-10T06:29:48.283Z,8.66
2023-04-10T06:32:21.053Z,8.74
2023-04-10T06:34:49.875Z,8.82
2023-04-10T06:37:19.134Z,8.90
2023-04-10T06:39:46.932Z,8.94
2023-04-10T06:42:16.688Z,9.01
2023-04-10T06:44:56.774Z,9.04
2023-04-10T06:47:25.664Z,9.09
2023-04-10T06:49:53.663Z,9.11
2023-04-10T06:52:21.494Z,9.15
2023-04-10T06:54:49.004Z,9.20
2023-04-10T06:57:16.927Z,9.25
2023-04-10T06:59:44.875Z,9.29
2023-04-10T07:02:12.785Z,9.34
2023-04-10T07:04:43.976Z,9.39
2023-04-10T07:07:13.306Z,9.44
2023-04-10T07:09:41.281Z,9.45
2023-04-10T07:12:08.831Z,9.57
2023-04-10T07:14:36.186Z,9.57
2023-04-10T07:17:03.641Z,9.62
2023-04-10T07:19:32.232Z,9.67
2023-04-10T07:22:06.561Z,9.71
2023-04-10T07:24:33.812Z,9.79
2023-04-10T07:27:02.366Z,9.86
2023-04-10T07:29:33.463Z,9.91
2023-04-10T07:32:01.098Z,10.06
2023-04-10T07:34:28.522Z,10.13
2023-04-10T07:36:57.034Z,10.20
2023-04-10T07:39:24.558Z,10.29
2023-04-10T07:41:56.233Z,10.30
2023-04-10T07:44:23.615Z,10.44
2023-04-10T07:46:52.352Z,10.54
2023-04-10T07:49:19.753Z,10.58
2023-04-10T07:51:47.379Z,10.69
2023-04-10T07:54:14.741Z,10.79
2023-04-10T07:56:44.954Z,10.97
2023-04-10T07:59:16.246Z,11.12
2023-04-10T08:01:45.146Z,11.30
2023-04-10T08:04:12.870Z,11.47
2023-04-10T08:06:41.622Z,11.65
2023-04-10T08:09:09.382Z,11.93
2023-04-10T08:11:38.703Z,12.11
2023-04-10T08:14:07.263Z,12.28
2023-04-10T08:16:36.644Z,12.40
2023-04-10T08:19:04.574Z,12.48
2023-04-10T08:21:33.490Z,12.54
2023-04-10T08:24:06.205Z,12.60
2023-04-10T08:26:34.658Z,12.64
2023-04-10T08:29:02.842Z,12.61
2023-04-10T08:31:30.564Z,12.61
2023-04-10T08:34:00.814Z,12.61
2023-04-10T08:36:29.609Z,12.62
2023-04-10T08:38:57.200Z,12.64
2023-04-10T08:41:24.545Z,12.68
2023-04-10T08:43:52.106Z,12.74
2023-04-10T08:46:26.688Z,12.82
2023-04-10T08:49:05.857Z,12.97
2023-04-10T08:51:58.762Z,13.05
2023-04-10T08:54:36.396Z,13.10
2023-04-10T08:57:08.105Z,13.16
2023-04-10T08:59:37.747Z,13.17
2023-04-10T09:02:07.040Z,13.18
2023-04-10T09:04:34.827Z,13.14
2023-04-10T09:07:03.698Z,13.15
2023-04-10T09:09:36.588Z,13.20
2023-04-10T09:12:04.552Z,13.23
2023-04-10T09:14:35.178Z,13.28
2023-04-10T09:17:23.948Z,13.35
2023-04-10T09:19:55.517Z,13.45
2023-04-10T09:22:36.334Z,13.53
2023-04-10T09:25:05.625Z,13.52
2023-04-10T09:27:37.536Z,13.54
2023-04-10T09:30:08.374Z,13.54
2023-04-10T09:32:47.815Z,13.52
2023-04-10T09:35:16.691Z,13.50
2023-04-10T09:37:47.232Z,13.56
2023-04-10T09:40:25.894Z,13.55
2023-04-10T09:42:56.115Z,13.56
2023-04-10T09:45:23.586Z,13.59
2023-04-10T09:48:09.209Z,13.64
2023-04-10T09:50:41.937Z,13.68
2023-04-10T09:53:21.782Z,13.73
2023-04-10T09:55:50.581Z,13.75
2023-04-10T09:58:19.272Z,13.85
2023-04-10T10:00:49.834Z,13.90
2023-04-10T10:03:23.019Z,13.92
2023-04-10T10:05:52.627Z,13.98
2023-04-10T10:08:27.372Z,13.98
2023-04-10T10:10:59.126Z,14.03
2023-04-10T10:13:49.632Z,14.11
2023-04-10T10:16:41.671Z,14.20
2023-04-10T10:20:23.213Z,14.30
2023-04-10T10:22:52.140Z,14.32
2023-04-10T10:25:21.455Z,14.36
2023-04-10T10:27:57.985Z,14.42
2023-04-10T10:30:30.553Z,14.48
2023-04-10T10:33:00.844Z,14.52
2023-04-10T10:35:31.204Z,14.66
2023-04-10T10:38:01.325Z,14.89
2023-04-10T10:40:59.256Z,15.13
2023-04-10T10:44:11.573Z,15.37
2023-04-10T10:47:10.054Z,15.65
2023-04-10T10:50:03.854Z,15.82
2023-04-10T10:52:57.384Z,15.86
2023-04-10T10:55:28.773Z,15.93
2023-04-10T10:58:10.338Z,15.94
2023-04-10T11:00:52.994Z,15.93
2023-04-10T11:03:20.688Z,16.01
2023-04-10T11:06:04.592Z,16.16
2023-04-10T11:08:50.197Z,16.38
2023-04-10T11:11:27.576Z,16.59
2023-04-10T11:14:17.772Z,16.87
2023-04-10T11:16:50.886Z,17.05
2023-04-10T11:19:23.387Z,17.12
2023-04-10T11:22:20.995Z,17.20
2023-04-10T11:25:02.496Z,17.44
2023-04-10T11:27:45.116Z,17.56
2023-04-10T11:30:35.394Z,17.71
2023-04-10T11:33:05.956Z,17.83
2023-04-10T11:35:34.309Z,17.97
2023-04-10T11:38:18.992Z,18.06
2023-04-10T11:41:08.789Z,18.28
2023-04-10T11:43:36.258Z,18.44
2023-04-10T11:46:08.195Z,18.50
2023-04-10T11:48:39.120Z,18.37
2023-04-10T11:51:15.133Z,18.15
2023-04-10T11:53:45.035Z,17.97
2023-04-10T11:56:22.035Z,17.79
2023-04-10T11:58:54.702Z,17.61
2023-04-10T12:01:26.533Z,17.48
2023-04-10T12:03:54.832Z,17.39
2023-04-10T12:06:22.829Z,17.37
2023-04-10T12:08:51.467Z,17.36
2023-04-10T12:11:28.773Z,17.37
2023-04-10T12:14:00.132Z,17.38
2023-04-10T12:16:27.729Z,17.39
2023-04-10T12:19:04.340Z,17.45
2023-04-10T12:21:37.583Z,17.45
2023-04-10T12:24:06.480Z,17.51
2023-04-10T12:26:35.468Z,17.49
2023-04-10T12:29:04.001Z,17.61
2023-04-10T12:31:36.397Z,17.59
2023-04-10T12:34:05.671Z,17.55
2023-04-10T12:36:35.207Z,17.51
2023-04-10T12:39:05.834Z,17.53
2023-04-10T12:41:35.636Z,17.54
2023-04-10T12:44:17.662Z,17.55
2023-04-10T12:46:46.885Z,17.50
2023-04-10T12:49:21.985Z,17.40
2023-04-10T12:51:53.168Z,17.36
2023-04-10T12:54:37.015Z,17.25
2023-04-10T12:57:07.669Z,17.16
2023-04-10T12:59:35.034Z,17.10
2023-04-10T13:02:29.700Z,17.03
2023-04-10T13:05:00.138Z,17.02
2023-04-10T13:07:28.919Z,16.92
2023-04-10T13:10:00.055Z,16.85
2023-04-10T13:12:28.955Z,16.73
2023-04-10T13:14:59.866Z,16.65
2023-04-10T13:17:28.320Z,16.59
2023-04-10T13:19:58.569Z,16.54
2023-04-10T13:22:25.994Z,16.49
2023-04-10T13:24:53.559Z,16.52
2023-04-10T13:27:22.873Z,16.51
2023-04-10T13:29:50.367Z,16.49
2023-04-10T13:32:19.150Z,16.45
2023-04-10T13:35:01.119Z,16.40
2023-04-10T13:37:30.881Z,16.39
2023-04-10T13:40:00.676Z,16.38
2023-04-10T13:42:30.691Z,16.38
2023-04-10T13:45:01.654Z,16.41
2023-04-10T13:47:32.273Z,16.47
2023-04-10T13:50:01.105Z,16.46
2023-04-10T13:52:28.593Z,16.51
2023-04-10T13:54:55.937Z,16.53
2023-04-10T13:57:23.220Z,16.54
2023-04-10T13:59:50.693Z,16.57
2023-04-10T14:02:20.290Z,16.63
2023-04-10T14:04:51.268Z,16.69
2023-04-10T14:07:20.092Z,16.80
2023-04-10T14:09:48.839Z,16.85
2023-04-10T14:12:16.417Z,16.87
2023-04-10T14:14:46.170Z,16.91
2023-04-10T14:17:14.623Z,16.88
2023-04-10T14:19:43.227Z,16.86
2023-04-10T14:22:13.281Z,16.83
2023-04-10T14:24:42.488Z,16.79
2023-04-10T14:27:13.322Z,16.74
2023-04-10T14:29:50.889Z,16.53
2023-04-10T14:32:23.053Z,16.16
2023-04-10T14:34:50.529Z,15.96
2023-04-10T14:37:19.151Z,15.75
2023-04-10T14:39:46.726Z,15.48
2023-04-10T14:42:14.051Z,15.18
2023-04-10T14:44:45.056Z,14.79
2023-04-10T14:47:12.388Z,14.46
2023-04-10T14:49:40.592Z,14.10
2023-04-10T14:52:08.576Z,13.76
2023-04-10T14:54:35.946Z,13.53
2023-04-10T14:57:04.890Z,13.30
2023-04-10T14:59:32.199Z,13.15
2023-04-10T15:02:00.726Z,12.99
2023-04-10T15:04:28.429Z,12.94
2023-04-10T15:06:55.900Z,12.86
2023-04-10T15:09:23.363Z,12.83
2023-04-10T15:11:51.163Z,12.81
2023-04-10T15:14:18.406Z,12.76
2023-04-10T15:16:47.359Z,12.69
2023-04-10T15:19:14.705Z,12.62
2023-04-10T15:21:42.688Z,12.62
2023-04-10T15:24:10.221Z,12.72
2023-04-10T15:26:43.169Z,12.80
2023-04-10T15:29:13.239Z,12.70
2023-04-10T15:31:41.564Z,12.70
2023-04-10T15:34:10.205Z,12.76
2023-04-10T15:36:37.633Z,12.84
2023-04-10T15:39:05.181Z,12.89
2023-04-10T15:41:33.144Z,13.07
2023-04-10T15:44:00.575Z,13.06
2023-04-10T15:46:32.401Z,13.03
2023-04-10T15:49:00.928Z,13.02
2023-04-10T15:51:28.262Z,13.10
2023-04-10T15:53:56.217Z,13.15
2023-04-10T15:56:25.382Z,13.22
2023-04-10T15:58:53.228Z,13.30
2023-04-10T16:01:20.835Z,13.34
2023-04-10T16:03:49.384Z,13.38
2023-04-10T16:06:18.232Z,13.41
2023-04-10T16:08:45.612Z,13.44
2023-04-10T16:11:12.817Z,13.50
2023-04-10T16:13:42.905Z,13.52
2023-04-10T16:16:18.149Z,13.53
2023-04-10T16:18:47.225Z,13.56
2023-04-10T16:21:14.933Z,13.61
2023-04-10T16:23:43.503Z,13.63
2023-04-10T16:26:12.333Z,13.65
2023-04-10T16:28:39.607Z,13.68
2023-04-10T16:31:07.129Z,13.70
2023-04-10T16:33:34.469Z,13.71
2023-04-10T16:36:04.754Z,13.71
2023-04-10T16:38:35.777Z,13.72
2023-04-10T16:41:07.740Z,13.71
2023-04-10T16:43:35.844Z,13.70
2023-04-10T16:46:03.406Z,13.71
2023-04-10T16:48:30.844Z,13.73
2023-04-10T16:51:05.231Z,13.73
2023-04-10T16:53:36.411Z,13.78
2023-04-10T16:56:05.071Z,13.60
2023-04-10T16:58:36.796Z,13.30
2023-04-10T17:01:26.127Z,12.91
2023-04-10T17:03:54.976Z,12.55
2023-04-10T17:06:22.425Z,12.22
2023-04-10T17:08:49.737Z,12.00
2023-04-10T17:11:17.745Z,11.77
2023-04-10T17:13:46.658Z,11.63
2023-04-10T17:16:15.639Z,11.50
2023-04-10T17:18:44.031Z,11.35
2023-04-10T17:21:13.757Z,11.25
2023-04-10T17:23:41.642Z,11.15
2023-04-10T17:26:16.630Z,11.08
2023-04-10T17:28:47.672Z,10.97
2023-04-10T17:31:19.694Z,10.88
2023-04-10T17:33:47.072Z,10.79
2023-04-10T17:36:15.328Z,10.73
2023-04-10T17:38:43.422Z,10.67
2023-04-10T17:41:14.499Z,10.65
2023-04-10T17:43:41.985Z,10.63
2023-04-10T17:46:15.657Z,10.59
2023-04-10T17:48:46.166Z,10.60
2023-04-10T17:51:14.478Z,10.57
2023-04-10T17:53:41.904Z,10.55
2023-04-10T17:56:19.992Z,10.54
2023-04-10T17:58:48.842Z,10.53
2023-04-10T18:01:30.979Z,10.54
2023-04-10T18:03:59.338Z,10.52
2023-04-10T18:06:27.583Z,10.48
2023-04-10T18:08:57.378Z,10.46
2023-04-10T18:11:25.408Z,10.47
2023-04-10T18:13:52.668Z,10.42
2023-04-10T18:16:20.230Z,10.39
2023-04-10T18:18:47.807Z,10.35
2023-04-10T18:21:17.006Z,10.34
2023-04-10T18:23:44.652Z,10.32
2023-04-10T18:26:13.200Z,10.29
2023-04-10T18:28:42.124Z,10.31
2023-04-10T18:31:09.726Z,10.31
2023-04-10T18:33:37.520Z,10.29
2023-04-10T18:36:05.330Z,10.30
2023-04-10T18:38:34.781Z,10.30
2023-04-10T18:41:02.180Z,10.26
2023-04-10T18:43:29.550Z,10.22
2023-04-10T18:45:57.445Z,10.17
2023-04-10T18:48:24.827Z,10.16
2023-04-10T18:50:54.481Z,10.14
2023-04-10T18:53:22.683Z,10.15
2023-04-10T18:55:54.697Z,10.08
2023-04-10T18:58:22.995Z,10.08
2023-04-10T19:00:50.473Z,10.10
2023-04-10T19:03:18.798Z,10.06
2023-04-10T19:05:47.930Z,10.06
2023-04-10T19:08:18.092Z,9.99
2023-04-10T19:10:45.396Z,9.98
2023-04-10T19:13:13.412Z,9.94
2023-04-10T19:15:43.373Z,9.94
2023-04-10T19:18:12.380Z,9.94
2023-04-10T19:20:49.944Z,9.95
2023-04-10T19:23:18.845Z,9.97
2023-04-10T19:25:53.483Z,9.97
2023-04-10T19:28:20.976Z,9.98
2023-04-10T19:30:50.573Z,9.98
2023-04-10T19:33:20.103Z,9.98
2023-04-10T19:35:49.449Z,10.00
2023-04-10T19:38:17.867Z,10.01
2023-04-10T19:40:47.172Z,9.99
2023-04-10T19:43:14.552Z,9.98
2023-04-10T19:45:42.095Z,9.97
2023-04-10T19:48:09.758Z,9.97
2023-04-10T19:50:37.143Z,9.96
2023-04-10T19:53:04.800Z,9.95
2023-04-10T19:55:32.235Z,9.92
2023-04-10T19:57:59.567Z,9.90
2023-04-10T20:00:27.335Z,9.91
2023-04-10T20:02:54.978Z,9.89
2023-04-10T20:05:22.467Z,9.89
2023-04-10T20:07:50.393Z,9.89
2023-04-10T20:10:17.775Z,9.89
2023-04-10T20:12:45.087Z,9.84
2023-04-10T20:15:12.626Z,9.90
2023-04-10T20:17:40.025Z,9.89
2023-04-10T20:20:08.356Z,9.87
2023-04-10T20:22:35.656Z,9.84
2023-04-10T20:25:03.072Z,9.85
2023-04-10T20:27:30.410Z,9.84
2023-04-10T20:29:57.698Z,9.82
2023-04-10T20:32:25.094Z,9.82
2023-04-10T20:34:52.371Z,9.79
2023-04-10T20:37:21.982Z,9.80
2023-04-10T20:39:50.779Z,9.79
2023-04-10T20:42:18.130Z,9.78
2023-04-10T20:44:45.415Z,9.77
2023-04-10T20:47:13.612Z,9.78
2023-04-10T20:49:41.100Z,9.78
2023-04-10T20:52:08.370Z,9.79
2023-04-10T20:54:36.102Z,9.79
2023-04-10T20:57:05.842Z,9.79
2023-04-10T20:59:33.690Z,9.77
2023-04-10T21:02:02.379Z,9.77
2023-04-10T21:04:29.897Z,9.73
2023-04-10T21:06:57.534Z,9.71
2023-04-10T21:09:25.355Z,9.67
2023-04-10T21:11:52.564Z,9.66
2023-04-10T21:14:19.879Z,9.64
2023-04-10T21:16:47.260Z,9.60
2023-04-10T21:19:14.501Z,9.59
2023-04-10T21:21:41.903Z,9.57
2023-04-10T21:24:09.256Z,9.56
2023-04-10T21:26:36.628Z,9.54
2023-04-10T21:29:03.937Z,9.52
2023-04-10T21:31:31.571Z,9.50
2023-04-10T21:33:58.860Z,9.48
2023-04-10T21:36:26.778Z,9.46
2023-04-10T21:38:54.215Z,9.43
2023-04-10T21:41:21.763Z,9.42
2023-04-10T21:43:49.203Z,9.40
2023-04-10T21:46:16.565Z,9.38
2023-04-10T21:48:43.957Z,9.35
2023-04-10T21:51:11.406Z,9.38
2023-04-10T21:53:38.761Z,9.41
2023-04-10T21:56:07.981Z,9.45
2023-04-10T21:58:35.297Z,9.47
2023-04-10T22:01:02.593Z,9.48
2023-04-10T22:03:30.578Z,9.52
2023-04-10T22:05:57.927Z,9.51
2023-04-10T22:08:25.250Z,9.52
2023-04-10T22:10:52.629Z,9.48
2023-04-10T22:13:30.456Z,9.41
2023-04-10T22:16:02.183Z,9.42
2023-04-10T22:18:31.388Z,9.41
2023-04-10T22:20:59.048Z,9.46
2023-04-10T22:23:26.714Z,9.46
2023-04-10T22:25:53.960Z,9.49
2023-04-10T22:28:21.202Z,9.51
2023-04-10T22:30:48.553Z,9.52
2023-04-10T22:33:15.873Z,9.53
2023-04-10T22:35:43.233Z,9.55
2023-04-10T22:38:10.730Z,9.58
2023-04-10T22:40:38.004Z,9.59
2023-04-10T22:43:05.268Z,9.60
2023-04-10T22:45:32.476Z,9.61
2023-04-10T22:47:59.910Z,9.63
2023-04-10T22:50:27.244Z,9.62
2023-04-10T22:52:56.212Z,9.64
2023-04-10T22:55:23.551Z,9.66
2023-04-10T22:57:51.154Z,9.66
2023-04-10T23:00:18.716Z,9.67
2023-04-10T23:02:46.201Z,9.68
2023-04-10T23:05:14.122Z,9.67
2023-04-10T23:07:41.369Z,9.70
2023-04-10T23:10:09.331Z,9.72
2023-04-10T23:12:37.745Z,9.72
2023-04-10T23:15:07.973Z,9.73
2023-04-10T23:17:35.317Z,9.72
2023-04-10T23:20:02.959Z,9.72
2023-04-10T23:22:30.435Z,9.73
2023-04-10T23:24:58.099Z,9.72
2023-04-10T23:27:25.313Z,9.66
2023-04-10T23:29:52.578Z,9.68
2023-04-10T23:32:19.889Z,9.68
2023-04-10T23:34:47.137Z,9.68
2023-04-10T23:37:14.406Z,9.67
2023-04-10T23:39:41.568Z,9.64
2023-04-10T23:42:09.354Z,9.63
2023-04-10T23:44:36.604Z,9.59
2023-04-10T23:47:04.290Z,9.56
2023-04-10T23:49:31.624Z,9.53
2023-04-10T23:51:59.194Z,9.50
2023-04-10T23:54:26.748Z,9.47
2023-04-10T23:56:54.062Z,9.42
2023-04-10T23:59:23.760Z,9.45
